sensor_id;sensor_type;location;lat;lon;timestamp;temperature;humidity
55648;DHT22;45266;48.756;9.246;2024-03-08T00:01:10;0.50;91.20
55648;DHT22;45266;48.756;9.246;2024-03-08T00:06:12;0.50;92.00
55648;DHT22;45266;48.756;9.246;2024-03-08T00:11:14;0.50;92.20
55648;DHT22;45266;48.756;9.246;2024-03-08T00:16:16;0.40;92.20
55648;DHT22;45266;48.756;9.246;2024-03-08T00:21:20;0.30;92.60
55648;DHT22;45266;48.756;9.246;2024-03-08T00:26:22;0.20;93.00
55648;DHT22;45266;48.756;9.246;2024-03-08T00:31:24;0.00;93.40
55648;DHT22;45266;48.756;9.246;2024-03-08T00:36:26;0.00;93.50
55648;DHT22;45266;48.756;9.246;2024-03-08T00:41:28;0.00;93.30
55648;DHT22;45266;48.756;9.246;2024-03-08T00:46:30;-0.10;93.70
55648;DHT22;45266;48.756;9.246;2024-03-08T00:51:33;-0.10;93.70
55648;DHT22;45266;48.756;9.246;2024-03-08T00:56:35;-0.10;94.00
55648;DHT22;45266;48.756;9.246;2024-03-08T01:01:37;-0.10;94.00
55648;DHT22;45266;48.756;9.246;2024-03-08T01:06:38;-0.20;94.60
55648;DHT22;45266;48.756;9.246;2024-03-08T01:11:40;-0.20;94.20
55648;DHT22;45266;48.756;9.246;2024-03-08T01:16:43;-0.20;94.70
55648;DHT22;45266;48.756;9.246;2024-03-08T01:21:45;-0.30;94.60
55648;DHT22;45266;48.756;9.246;2024-03-08T01:26:48;-0.40;94.50
55648;DHT22;45266;48.756;9.246;2024-03-08T01:31:50;-0.50;94.90
55648;DHT22;45266;48.756;9.246;2024-03-08T01:36:54;-0.50;94.90
55648;DHT22;45266;48.756;9.246;2024-03-08T01:41:58;-0.60;95.00
55648;DHT22;45266;48.756;9.246;2024-03-08T01:47:00;-0.60;95.10
55648;DHT22;45266;48.756;9.246;2024-03-08T01:52:03;-0.60;95.20
55648;DHT22;45266;48.756;9.246;2024-03-08T01:57:05;-0.70;95.40
55648;DHT22;45266;48.756;9.246;2024-03-08T02:02:08;-0.70;95.50
55648;DHT22;45266;48.756;9.246;2024-03-08T02:07:10;-0.60;95.60
55648;DHT22;45266;48.756;9.246;2024-03-08T02:12:13;-0.60;95.30
55648;DHT22;45266;48.756;9.246;2024-03-08T02:17:15;-0.70;95.20
55648;DHT22;45266;48.756;9.246;2024-03-08T02:22:17;-0.70;95.20
55648;DHT22;45266;48.756;9.246;2024-03-08T02:27:25;-0.80;95.40
55648;DHT22;45266;48.756;9.246;2024-03-08T02:32:27;-0.90;95.40
55648;DHT22;45266;48.756;9.246;2024-03-08T02:37:29;-0.90;95.50
55648;DHT22;45266;48.756;9.246;2024-03-08T02:42:31;-0.90;95.70
55648;DHT22;45266;48.756;9.246;2024-03-08T02:47:32;-1.00;95.60
55648;DHT22;45266;48.756;9.246;2024-03-08T02:52:35;-1.00;95.70
55648;DHT22;45266;48.756;9.246;2024-03-08T02:57:39;-1.00;95.50
55648;DHT22;45266;48.756;9.246;2024-03-08T03:02:41;-1.00;95.60
55648;DHT22;45266;48.756;9.246;2024-03-08T03:07:44;-1.00;96.10
55648;DHT22;45266;48.756;9.246;2024-03-08T03:12:46;-1.10;95.70
55648;DHT22;45266;48.756;9.246;2024-03-08T03:17:48;-1.10;95.80
55648;DHT22;45266;48.756;9.246;2024-03-08T03:22:52;-1.10;95.80
55648;DHT22;45266;48.756;9.246;2024-03-08T03:27:55;-1.10;95.80
55648;DHT22;45266;48.756;9.246;2024-03-08T03:33:00;-1.10;95.90
55648;DHT22;45266;48.756;9.246;2024-03-08T03:38:02;-1.10;95.70
55648;DHT22;45266;48.756;9.246;2024-03-08T03:43:12;-1.10;96.00
55648;DHT22;45266;48.756;9.246;2024-03-08T03:48:14;-1.10;96.00
55648;DHT22;45266;48.756;9.246;2024-03-08T03:53:16;-1.00;96.30
55648;DHT22;45266;48.756;9.246;2024-03-08T03:58:18;-1.10;96.20
55648;DHT22;45266;48.756;9.246;2024-03-08T04:03:24;-1.10;96.00
55648;DHT22;45266;48.756;9.246;2024-03-08T04:08:26;-1.10;95.80
55648;DHT22;45266;48.756;9.246;2024-03-08T04:13:27;-1.10;95.70
55648;DHT22;45266;48.756;9.246;2024-03-08T04:18:29;-1.30;95.90
55648;DHT22;45266;48.756;9.246;2024-03-08T04:23:31;-1.30;96.20
55648;DHT22;45266;48.756;9.246;2024-03-08T04:28:33;-1.30;96.30
55648;DHT22;45266;48.756;9.246;2024-03-08T04:33:35;-1.30;96.50
55648;DHT22;45266;48.756;9.246;2024-03-08T04:38:37;-1.40;96.40
55648;DHT22;45266;48.756;9.246;2024-03-08T04:43:42;-1.50;96.50
55648;DHT22;45266;48.756;9.246;2024-03-08T04:48:44;-1.50;96.80
55648;DHT22;45266;48.756;9.246;2024-03-08T04:53:46;-1.50;97.00
55648;DHT22;45266;48.756;9.246;2024-03-08T04:58:48;-1.50;96.80
55648;DHT22;45266;48.756;9.246;2024-03-08T05:03:49;-1.50;97.20
55648;DHT22;45266;48.756;9.246;2024-03-08T05:08:52;-1.50;97.20
55648;DHT22;45266;48.756;9.246;2024-03-08T05:13:54;-1.50;97.20
55648;DHT22;45266;48.756;9.246;2024-03-08T05:18:56;-1.60;97.20
55648;DHT22;45266;48.756;9.246;2024-03-08T05:23:58;-1.70;97.10
55648;DHT22;45266;48.756;9.246;2024-03-08T05:29:00;-1.70;97.40
55648;DHT22;45266;48.756;9.246;2024-03-08T05:34:02;-1.70;97.50
55648;DHT22;45266;48.756;9.246;2024-03-08T05:39:04;-1.70;97.60
55648;DHT22;45266;48.756;9.246;2024-03-08T05:44:09;-1.70;97.60
55648;DHT22;45266;48.756;9.246;2024-03-08T05:49:11;-1.80;97.40
55648;DHT22;45266;48.756;9.246;2024-03-08T05:54:14;-1.80;97.70
55648;DHT22;45266;48.756;9.246;2024-03-08T05:59:19;-1.80;97.70
55648;DHT22;45266;48.756;9.246;2024-03-08T06:04:22;-1.80;97.90
55648;DHT22;45266;48.756;9.246;2024-03-08T06:09:25;-1.70;97.90
55648;DHT22;45266;48.756;9.246;2024-03-08T06:14:27;-1.80;97.60
55648;DHT22;45266;48.756;9.246;2024-03-08T06:19:29;-1.80;97.80
55648;DHT22;45266;48.756;9.246;2024-03-08T06:24:34;-1.80;97.80
55648;DHT22;45266;48.756;9.246;2024-03-08T06:29:39;-1.80;97.70
55648;DHT22;45266;48.756;9.246;2024-03-08T06:34:41;-1.80;97.90
55648;DHT22;45266;48.756;9.246;2024-03-08T06:39:43;-1.70;98.30
55648;DHT22;45266;48.756;9.246;2024-03-08T06:44:46;-1.60;98.40
55648;DHT22;45266;48.756;9.246;2024-03-08T06:49:51;-1.50;98.60
55648;DHT22;45266;48.756;9.246;2024-03-08T06:54:53;-1.30;98.70
55648;DHT22;45266;48.756;9.246;2024-03-08T06:59:55;-1.10;98.90
55648;DHT22;45266;48.756;9.246;2024-03-08T07:04:58;-1.00;99.00
55648;DHT22;45266;48.756;9.246;2024-03-08T07:10:00;-0.80;99.00
55648;DHT22;45266;48.756;9.246;2024-03-08T07:15:04;-0.60;99.10
55648;DHT22;45266;48.756;9.246;2024-03-08T07:20:07;-0.30;99.10
55648;DHT22;45266;48.756;9.246;2024-03-08T07:25:14;-0.10;98.50
55648;DHT22;45266;48.756;9.246;2024-03-08T07:30:31;0.00;98.50
55648;DHT22;45266;48.756;9.246;2024-03-08T07:35:48;0.50;98.20
55648;DHT22;45266;48.756;9.246;2024-03-08T07:40:52;1.00;95.00
55648;DHT22;45266;48.756;9.246;2024-03-08T07:45:57;1.30;92.40
55648;DHT22;45266;48.756;9.246;2024-03-08T07:51:00;1.50;89.30
55648;DHT22;45266;48.756;9.246;2024-03-08T07:56:02;1.80;88.10
55648;DHT22;45266;48.756;9.246;2024-03-08T08:01:04;1.90;86.70
55648;DHT22;45266;48.756;9.246;2024-03-08T08:06:06;2.10;85.40
55648;DHT22;45266;48.756;9.246;2024-03-08T08:11:09;2.30;84.90
55648;DHT22;45266;48.756;9.246;2024-03-08T08:16:13;2.40;82.80
55648;DHT22;45266;48.756;9.246;2024-03-08T08:21:15;2.50;81.90
55648;DHT22;45266;48.756;9.246;2024-03-08T08:26:17;2.60;81.70
55648;DHT22;45266;48.756;9.246;2024-03-08T08:31:26;2.70;81.70
55648;DHT22;45266;48.756;9.246;2024-03-08T08:36:38;2.80;80.90
55648;DHT22;45266;48.756;9.246;2024-03-08T08:41:40;2.80;79.50
55648;DHT22;45266;48.756;9.246;2024-03-08T08:46:44;2.80;79.60
55648;DHT22;45266;48.756;9.246;2024-03-08T08:51:50;2.90;79.60
55648;DHT22;45266;48.756;9.246;2024-03-08T08:56:54;3.00;78.70
55648;DHT22;45266;48.756;9.246;2024-03-08T09:01:56;3.00;78.40
55648;DHT22;45266;48.756;9.246;2024-03-08T09:06:58;3.00;78.60
55648;DHT22;45266;48.756;9.246;2024-03-08T09:12:00;3.10;77.80
55648;DHT22;45266;48.756;9.246;2024-03-08T09:17:03;3.20;77.30
55648;DHT22;45266;48.756;9.246;2024-03-08T09:22:05;3.20;76.60
55648;DHT22;45266;48.756;9.246;2024-03-08T09:27:07;3.30;76.30
55648;DHT22;45266;48.756;9.246;2024-03-08T09:32:11;3.20;76.20
55648;DHT22;45266;48.756;9.246;2024-03-08T09:37:13;3.30;76.50
55648;DHT22;45266;48.756;9.246;2024-03-08T09:42:16;3.50;76.50
55648;DHT22;45266;48.756;9.246;2024-03-08T09:47:20;3.50;75.80
55648;DHT22;45266;48.756;9.246;2024-03-08T09:52:24;3.60;74.60
55648;DHT22;45266;48.756;9.246;2024-03-08T09:57:27;3.70;74.20
55648;DHT22;45266;48.756;9.246;2024-03-08T10:02:31;3.90;73.60
55648;DHT22;45266;48.756;9.246;2024-03-08T10:07:33;3.90;74.00
55648;DHT22;45266;48.756;9.246;2024-03-08T10:12:36;4.10;73.60
55648;DHT22;45266;48.756;9.246;2024-03-08T10:17:38;4.30;72.20
55648;DHT22;45266;48.756;9.246;2024-03-08T10:22:42;4.20;71.10
55648;DHT22;45266;48.756;9.246;2024-03-08T10:28:04;4.30;71.90
55648;DHT22;45266;48.756;9.246;2024-03-08T10:33:06;4.40;72.00
55648;DHT22;45266;48.756;9.246;2024-03-08T10:38:14;4.80;71.30
55648;DHT22;45266;48.756;9.246;2024-03-08T10:43:23;5.00;69.50
55648;DHT22;45266;48.756;9.246;2024-03-08T10:48:31;5.00;69.00
55648;DHT22;45266;48.756;9.246;2024-03-08T10:53:40;5.10;68.80
55648;DHT22;45266;48.756;9.246;2024-03-08T10:58:43;5.20;67.90
55648;DHT22;45266;48.756;9.246;2024-03-08T11:03:47;5.00;67.70
55648;DHT22;45266;48.756;9.246;2024-03-08T11:08:52;5.00;68.00
55648;DHT22;45266;48.756;9.246;2024-03-08T11:13:57;5.00;69.10
55648;DHT22;45266;48.756;9.246;2024-03-08T11:19:01;5.30;68.50
55648;DHT22;45266;48.756;9.246;2024-03-08T11:24:09;5.50;67.60
55648;DHT22;45266;48.756;9.246;2024-03-08T11:29:43;5.60;67.90
55648;DHT22;45266;48.756;9.246;2024-03-08T11:34:49;5.70;66.20
55648;DHT22;45266;48.756;9.246;2024-03-08T11:39:54;5.70;66.60
55648;DHT22;45266;48.756;9.246;2024-03-08T11:45:08;5.90;65.80
55648;DHT22;45266;48.756;9.246;2024-03-08T11:50:16;6.10;65.70
55648;DHT22;45266;48.756;9.246;2024-03-08T11:55:21;6.40;65.00
55648;DHT22;45266;48.756;9.246;2024-03-08T12:00:23;6.50;63.40
55648;DHT22;45266;48.756;9.246;2024-03-08T12:05:28;6.90;63.80
55648;DHT22;45266;48.756;9.246;2024-03-08T12:10:33;7.40;62.20
55648;DHT22;45266;48.756;9.246;2024-03-08T12:15:37;7.80;60.00
55648;DHT22;45266;48.756;9.246;2024-03-08T12:20:40;8.00;59.20
55648;DHT22;45266;48.756;9.246;2024-03-08T12:25:45;8.20;58.00
55648;DHT22;45266;48.756;9.246;2024-03-08T12:30:50;8.60;58.30
55648;DHT22;45266;48.756;9.246;2024-03-08T12:35:57;8.90;57.30
55648;DHT22;45266;48.756;9.246;2024-03-08T12:41:00;9.20;56.10
55648;DHT22;45266;48.756;9.246;2024-03-08T12:46:07;9.40;55.00
55648;DHT22;45266;48.756;9.246;2024-03-08T12:51:10;9.20;55.70
55648;DHT22;45266;48.756;9.246;2024-03-08T12:56:28;9.20;55.90
55648;DHT22;45266;48.756;9.246;2024-03-08T13:01:31;9.40;55.60
55648;DHT22;45266;48.756;9.246;2024-03-08T13:06:36;9.40;54.60
55648;DHT22;45266;48.756;9.246;2024-03-08T13:11:38;9.70;54.90
55648;DHT22;45266;48.756;9.246;2024-03-08T13:16:40;9.70;53.90
55648;DHT22;45266;48.756;9.246;2024-03-08T13:21:42;9.70;54.30
55648;DHT22;45266;48.756;9.246;2024-03-08T13:26:44;9.60;54.20
55648;DHT22;45266;48.756;9.246;2024-03-08T13:31:47;9.40;54.70
55648;DHT22;45266;48.756;9.246;2024-03-08T13:36:54;9.30;54.80
55648;DHT22;45266;48.756;9.246;2024-03-08T13:42:01;9.60;54.40
55648;DHT22;45266;48.756;9.246;2024-03-08T13:47:03;10.00;52.90
55648;DHT22;45266;48.756;9.246;2024-03-08T13:52:06;10.20;52.50
55648;DHT22;45266;48.756;9.246;2024-03-08T13:57:10;10.40;51.80
55648;DHT22;45266;48.756;9.246;2024-03-08T14:02:13;10.30;51.40
55648;DHT22;45266;48.756;9.246;2024-03-08T14:07:15;10.30;51.50
55648;DHT22;45266;48.756;9.246;2024-03-08T14:12:19;10.20;51.50
55648;DHT22;45266;48.756;9.246;2024-03-08T14:17:23;10.10;52.10
55648;DHT22;45266;48.756;9.246;2024-03-08T14:22:26;9.90;52.30
55648;DHT22;45266;48.756;9.246;2024-03-08T14:27:28;9.80;53.90
55648;DHT22;45266;48.756;9.246;2024-03-08T14:32:30;10.10;52.80
55648;DHT22;45266;48.756;9.246;2024-03-08T14:37:32;10.30;52.50
55648;DHT22;45266;48.756;9.246;2024-03-08T14:42:34;10.50;51.80
55648;DHT22;45266;48.756;9.246;2024-03-08T14:47:36;10.30;52.20
55648;DHT22;45266;48.756;9.246;2024-03-08T14:52:45;10.20;52.90
55648;DHT22;45266;48.756;9.246;2024-03-08T14:57:51;10.10;53.60
55648;DHT22;45266;48.756;9.246;2024-03-08T15:02:54;10.10;53.50
55648;DHT22;45266;48.756;9.246;2024-03-08T15:07:56;9.80;53.70
55648;DHT22;45266;48.756;9.246;2024-03-08T15:12:58;9.70;54.30
55648;DHT22;45266;48.756;9.246;2024-03-08T15:18:01;9.60;54.60
55648;DHT22;45266;48.756;9.246;2024-03-08T15:23:05;9.50;55.00
55648;DHT22;45266;48.756;9.246;2024-03-08T15:28:09;9.40;55.20
55648;DHT22;45266;48.756;9.246;2024-03-08T15:33:16;9.40;55.40
55648;DHT22;45266;48.756;9.246;2024-03-08T15:38:25;9.40;56.30
55648;DHT22;45266;48.756;9.246;2024-03-08T15:43:33;9.40;55.70
55648;DHT22;45266;48.756;9.246;2024-03-08T15:48:38;9.40;56.00
55648;DHT22;45266;48.756;9.246;2024-03-08T15:53:42;9.20;56.40
55648;DHT22;45266;48.756;9.246;2024-03-08T15:58:45;9.20;57.00
55648;DHT22;45266;48.756;9.246;2024-03-08T16:03:47;9.00;57.80
55648;DHT22;45266;48.756;9.246;2024-03-08T16:08:51;9.00;56.30
55648;DHT22;45266;48.756;9.246;2024-03-08T16:13:54;9.20;56.20
55648;DHT22;45266;48.756;9.246;2024-03-08T16:18:56;9.20;56.20
55648;DHT22;45266;48.756;9.246;2024-03-08T16:23:59;9.10;57.20
55648;DHT22;45266;48.756;9.246;2024-03-08T16:29:05;9.00;56.80
55648;DHT22;45266;48.756;9.246;2024-03-08T16:34:08;9.00;56.90
55648;DHT22;45266;48.756;9.246;2024-03-08T16:39:10;8.90;57.10
55648;DHT22;45266;48.756;9.246;2024-03-08T16:44:13;8.80;57.00
55648;DHT22;45266;48.756;9.246;2024-03-08T16:49:15;8.90;56.70
55648;DHT22;45266;48.756;9.246;2024-03-08T16:54:18;8.60;58.00
55648;DHT22;45266;48.756;9.246;2024-03-08T16:59:19;8.40;59.20
55648;DHT22;45266;48.756;9.246;2024-03-08T17:04:22;8.30;58.80
55648;DHT22;45266;48.756;9.246;2024-03-08T17:09:24;8.10;60.80
55648;DHT22;45266;48.756;9.246;2024-03-08T17:14:27;7.70;62.80
55648;DHT22;45266;48.756;9.246;2024-03-08T17:19:30;7.50;62.50
55648;DHT22;45266;48.756;9.246;2024-03-08T17:24:32;7.50;63.00
55648;DHT22;45266;48.756;9.246;2024-03-08T17:29:34;7.20;63.80
55648;DHT22;45266;48.756;9.246;2024-03-08T17:34:37;6.90;65.30
55648;DHT22;45266;48.756;9.246;2024-03-08T17:39:41;6.60;66.30
55648;DHT22;45266;48.756;9.246;2024-03-08T17:44:44;6.30;68.00
55648;DHT22;45266;48.756;9.246;2024-03-08T17:49:47;6.10;68.80
55648;DHT22;45266;48.756;9.246;2024-03-08T17:54:49;5.80;70.70
55648;DHT22;45266;48.756;9.246;2024-03-08T17:59:54;5.50;71.80
55648;DHT22;45266;48.756;9.246;2024-03-08T18:04:55;5.20;73.90
55648;DHT22;45266;48.756;9.246;2024-03-08T18:09:58;5.00;75.30
55648;DHT22;45266;48.756;9.246;2024-03-08T18:15:00;4.70;75.90
55648;DHT22;45266;48.756;9.246;2024-03-08T18:20:03;4.50;76.80
55648;DHT22;45266;48.756;9.246;2024-03-08T18:25:06;4.30;77.90
55648;DHT22;45266;48.756;9.246;2024-03-08T18:30:14;4.10;78.30
55648;DHT22;45266;48.756;9.246;2024-03-08T18:35:19;3.90;79.20
55648;DHT22;45266;48.756;9.246;2024-03-08T18:40:22;3.70;80.00
55648;DHT22;45266;48.756;9.246;2024-03-08T18:45:27;3.60;80.80
55648;DHT22;45266;48.756;9.246;2024-03-08T18:50:30;3.50;81.00
55648;DHT22;45266;48.756;9.246;2024-03-08T18:55:32;3.30;81.40
55648;DHT22;45266;48.756;9.246;2024-03-08T19:00:34;3.30;81.80
55648;DHT22;45266;48.756;9.246;2024-03-08T19:05:40;3.20;82.20
55648;DHT22;45266;48.756;9.246;2024-03-08T19:10:44;3.10;82.70
55648;DHT22;45266;48.756;9.246;2024-03-08T19:15:46;3.00;83.00
55648;DHT22;45266;48.756;9.246;2024-03-08T19:20:52;3.00;83.10
55648;DHT22;45266;48.756;9.246;2024-03-08T19:25:54;2.90;83.40
55648;DHT22;45266;48.756;9.246;2024-03-08T19:30:56;2.80;83.80
55648;DHT22;45266;48.756;9.246;2024-03-08T19:35:59;2.70;83.90
55648;DHT22;45266;48.756;9.246;2024-03-08T19:41:02;2.60;84.20
55648;DHT22;45266;48.756;9.246;2024-03-08T19:46:04;2.50;84.50
55648;DHT22;45266;48.756;9.246;2024-03-08T19:51:11;2.50;85.00
55648;DHT22;45266;48.756;9.246;2024-03-08T19:56:15;2.40;85.00
55648;DHT22;45266;48.756;9.246;2024-03-08T20:01:18;2.40;84.90
55648;DHT22;45266;48.756;9.246;2024-03-08T20:06:20;2.40;84.80
55648;DHT22;45266;48.756;9.246;2024-03-08T20:11:23;2.30;84.50
55648;DHT22;45266;48.756;9.246;2024-03-08T20:16:26;2.20;84.60
55648;DHT22;45266;48.756;9.246;2024-03-08T20:21:28;2.10;85.10
55648;DHT22;45266;48.756;9.246;2024-03-08T20:26:30;2.00;85.30
55648;DHT22;45266;48.756;9.246;2024-03-08T20:31:32;1.90;85.90
55648;DHT22;45266;48.756;9.246;2024-03-08T20:36:34;1.80;86.10
55648;DHT22;45266;48.756;9.246;2024-03-08T20:41:36;1.70;86.50
55648;DHT22;45266;48.756;9.246;2024-03-08T20:46:39;1.70;86.50
55648;DHT22;45266;48.756;9.246;2024-03-08T20:51:41;1.60;86.60
55648;DHT22;45266;48.756;9.246;2024-03-08T20:56:43;1.50;87.20
55648;DHT22;45266;48.756;9.246;2024-03-08T21:01:45;1.40;87.80
55648;DHT22;45266;48.756;9.246;2024-03-08T21:06:47;1.40;88.60
55648;DHT22;45266;48.756;9.246;2024-03-08T21:11:49;1.30;88.30
55648;DHT22;45266;48.756;9.246;2024-03-08T21:16:51;1.30;88.30
55648;DHT22;45266;48.756;9.246;2024-03-08T21:21:53;1.30;88.50
55648;DHT22;45266;48.756;9.246;2024-03-08T21:26:55;1.20;88.50
55648;DHT22;45266;48.756;9.246;2024-03-08T21:32:00;1.10;88.70
55648;DHT22;45266;48.756;9.246;2024-03-08T21:37:04;1.10;89.00
55648;DHT22;45266;48.756;9.246;2024-03-08T21:42:08;1.10;89.10
55648;DHT22;45266;48.756;9.246;2024-03-08T21:47:10;1.00;89.00
55648;DHT22;45266;48.756;9.246;2024-03-08T21:52:12;1.00;89.20
55648;DHT22;45266;48.756;9.246;2024-03-08T21:57:16;1.00;90.00
55648;DHT22;45266;48.756;9.246;2024-03-08T22:02:21;1.00;89.80
55648;DHT22;45266;48.756;9.246;2024-03-08T22:07:24;1.00;89.70
55648;DHT22;45266;48.756;9.246;2024-03-08T22:12:25;0.90;90.20
55648;DHT22;45266;48.756;9.246;2024-03-08T22:17:31;0.80;90.20
55648;DHT22;45266;48.756;9.246;2024-03-08T22:22:34;0.80;90.40
55648;DHT22;45266;48.756;9.246;2024-03-08T22:27:37;0.90;90.20
55648;DHT22;45266;48.756;9.246;2024-03-08T22:32:42;0.80;90.00
55648;DHT22;45266;48.756;9.246;2024-03-08T22:37:44;0.70;90.30
55648;DHT22;45266;48.756;9.246;2024-03-08T22:42:46;0.60;90.90
55648;DHT22;45266;48.756;9.246;2024-03-08T22:47:48;0.60;91.00
55648;DHT22;45266;48.756;9.246;2024-03-08T22:52:51;0.60;91.60
55648;DHT22;45266;48.756;9.246;2024-03-08T22:57:53;0.60;91.20
55648;DHT22;45266;48.756;9.246;2024-03-08T23:02:55;0.50;91.50
55648;DHT22;45266;48.756;9.246;2024-03-08T23:07:59;0.50;92.40
55648;DHT22;45266;48.756;9.246;2024-03-08T23:13:02;0.60;93.00
55648;DHT22;45266;48.756;9.246;2024-03-08T23:18:05;0.60;92.70
55648;DHT22;45266;48.756;9.246;2024-03-08T23:23:12;0.60;92.30
55648;DHT22;45266;48.756;9.246;2024-03-08T23:28:14;0.60;92.30
55648;DHT22;45266;48.756;9.246;2024-03-08T23:33:17;0.50;92.30
55648;DHT22;45266;48.756;9.246;2024-03-08T23:38:20;0.50;92.90
55648;DHT22;45266;48.756;9.246;2024-03-08T23:43:22;0.50;92.90
55648;DHT22;45266;48.756;9.246;2024-03-08T23:48:23;0.50;93.30
55648;DHT22;45266;48.756;9.246;2024-03-08T23:53:27;0.60;93.50
55648;DHT22;45266;48.756;9.246;2024-03-08T23:58:31;0.60;92.90
